sensor_id;sensor_type;location;lat;lon;timestamp;temperature;humidity
68235;DHT22;55052;52.056;5.296;2024-01-10T00:01:57;-2.20;68.50
68235;DHT22;55052;52.056;5.296;2024-01-10T00:04:24;-2.30;68.60
68235;DHT22;55052;52.056;5.296;2024-01-10T00:06:51;-2.30;68.70
68235;DHT22;55052;52.056;5.296;2024-01-10T00:09:18;-2.30;68.90
68235;DHT22;55052;52.056;5.296;2024-01-10T00:11:45;-2.30;69.00
68235;DHT22;55052;52.056;5.296;2024-01-10T00:14:12;-2.30;69.10
68235;DHT22;55052;52.056;5.296;2024-01-10T00:16:38;-2.30;69.30
68235;DHT22;55052;52.056;5.296;2024-01-10T00:19:05;-2.30;69.40
68235;DHT22;55052;52.056;5.296;2024-01-10T00:21:32;-2.30;69.50
68235;DHT22;55052;52.056;5.296;2024-01-10T00:23:59;-2.30;69.70
68235;DHT22;55052;52.056;5.296;2024-01-10T00:26:26;-2.30;69.70
68235;DHT22;55052;52.056;5.296;2024-01-10T00:28:53;-2.30;69.80
68235;DHT22;55052;52.056;5.296;2024-01-10T00:31:29;-2.30;70.00
68235;DHT22;55052;52.056;5.296;2024-01-10T00:33:56;-2.30;70.00
68235;DHT22;55052;52.056;5.296;2024-01-10T00:36:23;-2.30;70.20
68235;DHT22;55052;52.056;5.296;2024-01-10T00:38:49;-2.40;70.20
68235;DHT22;55052;52.056;5.296;2024-01-10T00:41:16;-2.40;70.60
68235;DHT22;55052;52.056;5.296;2024-01-10T00:43:43;-2.40;70.40
68235;DHT22;55052;52.056;5.296;2024-01-10T00:46:10;-2.40;70.50
68235;DHT22;55052;52.056;5.296;2024-01-10T00:48:37;-2.40;70.70
68235;DHT22;55052;52.056;5.296;2024-01-10T00:51:04;-2.40;70.80
68235;DHT22;55052;52.056;5.296;2024-01-10T00:53:36;-2.40;70.80
68235;DHT22;55052;52.056;5.296;2024-01-10T00:56:06;-2.40;70.90
68235;DHT22;55052;52.056;5.296;2024-01-10T00:58:33;-2.50;70.90
68235;DHT22;55052;52.056;5.296;2024-01-10T01:01:00;-2.50;71.10
68235;DHT22;55052;52.056;5.296;2024-01-10T01:03:27;-2.50;72.00
68235;DHT22;55052;52.056;5.296;2024-01-10T01:05:54;-2.50;71.30
68235;DHT22;55052;52.056;5.296;2024-01-10T01:08:21;-2.50;71.30
68235;DHT22;55052;52.056;5.296;2024-01-10T01:10:49;-2.50;71.40
68235;DHT22;55052;52.056;5.296;2024-01-10T01:13:16;-2.50;71.50
68235;DHT22;55052;52.056;5.296;2024-01-10T01:15:43;-2.50;71.50
68235;DHT22;55052;52.056;5.296;2024-01-10T01:18:10;-2.50;71.50
68235;DHT22;55052;52.056;5.296;2024-01-10T01:20:39;-2.60;71.50
68235;DHT22;55052;52.056;5.296;2024-01-10T01:23:06;-2.60;71.50
68235;DHT22;55052;52.056;5.296;2024-01-10T01:25:33;-2.60;71.80
68235;DHT22;55052;52.056;5.296;2024-01-10T01:28:00;-2.70;71.90
68235;DHT22;55052;52.056;5.296;2024-01-10T01:30:27;-2.70;71.90
68235;DHT22;55052;52.056;5.296;2024-01-10T01:32:54;-2.70;72.10
68235;DHT22;55052;52.056;5.296;2024-01-10T01:35:20;-2.70;72.20
68235;DHT22;55052;52.056;5.296;2024-01-10T01:37:49;-2.70;72.30
68235;DHT22;55052;52.056;5.296;2024-01-10T01:40:18;-2.70;72.40
68235;DHT22;55052;52.056;5.296;2024-01-10T01:42:45;-2.70;72.40
68235;DHT22;55052;52.056;5.296;2024-01-10T01:45:12;-2.70;72.50
68235;DHT22;55052;52.056;5.296;2024-01-10T01:47:40;-2.70;72.60
68235;DHT22;55052;52.056;5.296;2024-01-10T01:50:08;-2.70;72.60
68235;DHT22;55052;52.056;5.296;2024-01-10T01:52:35;-2.70;72.70
68235;DHT22;55052;52.056;5.296;2024-01-10T01:55:02;-2.70;72.60
68235;DHT22;55052;52.056;5.296;2024-01-10T01:57:30;-2.70;73.30
68235;DHT22;55052;52.056;5.296;2024-01-10T01:59:57;-2.70;72.70
68235;DHT22;55052;52.056;5.296;2024-01-10T02:02:24;-2.70;72.80
68235;DHT22;55052;52.056;5.296;2024-01-10T02:04:51;-2.70;73.70
68235;DHT22;55052;52.056;5.296;2024-01-10T02:07:18;-2.70;73.00
68235;DHT22;55052;52.056;5.296;2024-01-10T02:09:45;-2.70;73.00
68235;DHT22;55052;52.056;5.296;2024-01-10T02:12:12;-2.70;73.00
68235;DHT22;55052;52.056;5.296;2024-01-10T02:14:39;-2.70;72.80
68235;DHT22;55052;52.056;5.296;2024-01-10T02:17:06;-2.70;72.90
68235;DHT22;55052;52.056;5.296;2024-01-10T02:19:33;-2.70;73.00
68235;DHT22;55052;52.056;5.296;2024-01-10T02:22:01;-2.80;72.90
68235;DHT22;55052;52.056;5.296;2024-01-10T02:24:29;-2.80;72.90
68235;DHT22;55052;52.056;5.296;2024-01-10T02:26:56;-2.80;73.10
68235;DHT22;55052;52.056;5.296;2024-01-10T02:29:23;-2.80;73.10
68235;DHT22;55052;52.056;5.296;2024-01-10T02:31:50;-2.70;73.20
68235;DHT22;55052;52.056;5.296;2024-01-10T02:34:17;-2.80;73.30
68235;DHT22;55052;52.056;5.296;2024-01-10T02:36:44;-2.80;73.30
68235;DHT22;55052;52.056;5.296;2024-01-10T02:39:12;-2.80;74.00
68235;DHT22;55052;52.056;5.296;2024-01-10T02:41:38;-2.80;73.30
68235;DHT22;55052;52.056;5.296;2024-01-10T02:44:05;-2.80;73.30
68235;DHT22;55052;52.056;5.296;2024-01-10T02:46:32;-2.80;73.60
68235;DHT22;55052;52.056;5.296;2024-01-10T02:48:59;-2.80;73.60
68235;DHT22;55052;52.056;5.296;2024-01-10T02:51:27;-2.80;73.60
68235;DHT22;55052;52.056;5.296;2024-01-10T02:53:54;-2.80;73.70
68235;DHT22;55052;52.056;5.296;2024-01-10T02:56:21;-2.80;73.60
68235;DHT22;55052;52.056;5.296;2024-01-10T02:58:48;-2.90;73.60
68235;DHT22;55052;52.056;5.296;2024-01-10T03:01:15;-2.90;73.70
68235;DHT22;55052;52.056;5.296;2024-01-10T03:03:42;-2.90;73.60
68235;DHT22;55052;52.056;5.296;2024-01-10T03:06:09;-2.90;73.70
68235;DHT22;55052;52.056;5.296;2024-01-10T03:08:36;-3.00;73.80
68235;DHT22;55052;52.056;5.296;2024-01-10T03:11:03;-3.00;73.80
68235;DHT22;55052;52.056;5.296;2024-01-10T03:13:30;-3.00;73.90
68235;DHT22;55052;52.056;5.296;2024-01-10T03:15:57;-3.00;74.00
68235;DHT22;55052;52.056;5.296;2024-01-10T03:18:24;-3.00;74.00
68235;DHT22;55052;52.056;5.296;2024-01-10T03:20:51;-3.00;74.10
68235;DHT22;55052;52.056;5.296;2024-01-10T03:23:17;-3.00;74.10
68235;DHT22;55052;52.056;5.296;2024-01-10T03:25:44;-3.00;74.10
68235;DHT22;55052;52.056;5.296;2024-01-10T03:28:15;-3.00;74.20
68235;DHT22;55052;52.056;5.296;2024-01-10T03:30:43;-3.10;74.20
68235;DHT22;55052;52.056;5.296;2024-01-10T03:33:10;-3.10;74.30
68235;DHT22;55052;52.056;5.296;2024-01-10T03:35:38;-3.10;74.30
68235;DHT22;55052;52.056;5.296;2024-01-10T03:38:04;-3.10;74.50
68235;DHT22;55052;52.056;5.296;2024-01-10T03:40:31;-3.20;74.50
68235;DHT22;55052;52.056;5.296;2024-01-10T03:42:58;-3.10;74.70
68235;DHT22;55052;52.056;5.296;2024-01-10T03:45:25;-3.20;74.60
68235;DHT22;55052;52.056;5.296;2024-01-10T03:47:51;-3.20;74.70
68235;DHT22;55052;52.056;5.296;2024-01-10T03:50:19;-3.20;74.80
68235;DHT22;55052;52.056;5.296;2024-01-10T03:52:46;-3.20;74.90
68235;DHT22;55052;52.056;5.296;2024-01-10T03:55:13;-3.20;75.00
68235;DHT22;55052;52.056;5.296;2024-01-10T03:57:42;-3.30;75.00
68235;DHT22;55052;52.056;5.296;2024-01-10T04:00:09;-3.30;75.00
68235;DHT22;55052;52.056;5.296;2024-01-10T04:02:37;-3.30;75.00
68235;DHT22;55052;52.056;5.296;2024-01-10T04:05:07;-3.30;75.00
68235;DHT22;55052;52.056;5.296;2024-01-10T04:07:35;-3.30;75.10
68235;DHT22;55052;52.056;5.296;2024-01-10T04:10:03;-3.30;75.30
68235;DHT22;55052;52.056;5.296;2024-01-10T04:12:30;-3.30;75.40
68235;DHT22;55052;52.056;5.296;2024-01-10T04:14:56;-3.30;75.40
68235;DHT22;55052;52.056;5.296;2024-01-10T04:17:23;-3.40;75.40
68235;DHT22;55052;52.056;5.296;2024-01-10T04:19:50;-3.40;75.50
68235;DHT22;55052;52.056;5.296;2024-01-10T04:22:17;-3.40;75.60
68235;DHT22;55052;52.056;5.296;2024-01-10T04:24:44;-3.40;75.50
68235;DHT22;55052;52.056;5.296;2024-01-10T04:27:11;-3.40;75.60
68235;DHT22;55052;52.056;5.296;2024-01-10T04:29:37;-3.40;75.80
68235;DHT22;55052;52.056;5.296;2024-01-10T04:32:05;-3.40;75.80
68235;DHT22;55052;52.056;5.296;2024-01-10T04:34:31;-3.40;75.80
68235;DHT22;55052;52.056;5.296;2024-01-10T04:36:58;-3.40;75.80
68235;DHT22;55052;52.056;5.296;2024-01-10T04:39:25;-3.50;75.90
68235;DHT22;55052;52.056;5.296;2024-01-10T04:41:52;-3.50;76.00
68235;DHT22;55052;52.056;5.296;2024-01-10T04:44:18;-3.40;76.10
68235;DHT22;55052;52.056;5.296;2024-01-10T04:46:45;-3.50;76.00
68235;DHT22;55052;52.056;5.296;2024-01-10T04:49:12;-3.50;76.90
68235;DHT22;55052;52.056;5.296;2024-01-10T04:51:39;-3.60;77.00
68235;DHT22;55052;52.056;5.296;2024-01-10T04:54:06;-3.50;76.20
68235;DHT22;55052;52.056;5.296;2024-01-10T04:56:32;-3.60;76.00
68235;DHT22;55052;52.056;5.296;2024-01-10T04:58:59;-3.60;76.20
68235;DHT22;55052;52.056;5.296;2024-01-10T05:01:26;-3.60;76.20
68235;DHT22;55052;52.056;5.296;2024-01-10T05:03:53;-3.60;77.20
68235;DHT22;55052;52.056;5.296;2024-01-10T05:06:20;-3.60;76.40
68235;DHT22;55052;52.056;5.296;2024-01-10T05:08:46;-3.60;76.40
68235;DHT22;55052;52.056;5.296;2024-01-10T05:11:14;-3.60;76.20
68235;DHT22;55052;52.056;5.296;2024-01-10T05:13:42;-3.60;76.10
68235;DHT22;55052;52.056;5.296;2024-01-10T05:16:09;-3.60;76.20
68235;DHT22;55052;52.056;5.296;2024-01-10T05:18:36;-3.60;76.20
68235;DHT22;55052;52.056;5.296;2024-01-10T05:21:03;-3.60;76.20
68235;DHT22;55052;52.056;5.296;2024-01-10T05:23:30;-3.60;76.20
68235;DHT22;55052;52.056;5.296;2024-01-10T05:25:57;-3.60;76.30
68235;DHT22;55052;52.056;5.296;2024-01-10T05:28:24;-3.60;76.30
68235;DHT22;55052;52.056;5.296;2024-01-10T05:30:51;-3.60;76.30
68235;DHT22;55052;52.056;5.296;2024-01-10T05:33:18;-3.60;76.20
68235;DHT22;55052;52.056;5.296;2024-01-10T05:35:45;-3.60;77.10
68235;DHT22;55052;52.056;5.296;2024-01-10T05:38:12;-3.60;76.10
68235;DHT22;55052;52.056;5.296;2024-01-10T05:40:38;-3.60;76.20
68235;DHT22;55052;52.056;5.296;2024-01-10T05:43:05;-3.60;76.30
68235;DHT22;55052;52.056;5.296;2024-01-10T05:45:33;-3.60;76.20
68235;DHT22;55052;52.056;5.296;2024-01-10T05:48:00;-3.60;76.30
68235;DHT22;55052;52.056;5.296;2024-01-10T05:50:27;-3.60;76.30
68235;DHT22;55052;52.056;5.296;2024-01-10T05:52:54;-3.60;76.30
68235;DHT22;55052;52.056;5.296;2024-01-10T05:55:21;-3.60;76.40
68235;DHT22;55052;52.056;5.296;2024-01-10T05:57:47;-3.60;76.40
68235;DHT22;55052;52.056;5.296;2024-01-10T06:00:14;-3.60;76.40
68235;DHT22;55052;52.056;5.296;2024-01-10T06:02:43;-3.60;76.40
68235;DHT22;55052;52.056;5.296;2024-01-10T06:05:10;-3.60;76.30
68235;DHT22;55052;52.056;5.296;2024-01-10T06:07:38;-3.60;76.40
68235;DHT22;55052;52.056;5.296;2024-01-10T06:10:06;-3.60;76.50
68235;DHT22;55052;52.056;5.296;2024-01-10T06:12:33;-3.60;76.50
68235;DHT22;55052;52.056;5.296;2024-01-10T06:15:00;-3.60;76.50
68235;DHT22;55052;52.056;5.296;2024-01-10T06:17:26;-3.60;76.50
68235;DHT22;55052;52.056;5.296;2024-01-10T06:19:53;-3.60;76.60
68235;DHT22;55052;52.056;5.296;2024-01-10T06:22:20;-3.60;76.50
68235;DHT22;55052;52.056;5.296;2024-01-10T06:24:55;-3.70;77.30
68235;DHT22;55052;52.056;5.296;2024-01-10T06:27:21;-3.70;76.30
68235;DHT22;55052;52.056;5.296;2024-01-10T06:29:48;-3.70;76.30
68235;DHT22;55052;52.056;5.296;2024-01-10T06:32:15;-3.70;76.50
68235;DHT22;55052;52.056;5.296;2024-01-10T06:34:42;-3.80;76.40
68235;DHT22;55052;52.056;5.296;2024-01-10T06:37:10;-3.80;76.30
68235;DHT22;55052;52.056;5.296;2024-01-10T06:39:37;-3.80;76.40
68235;DHT22;55052;52.056;5.296;2024-01-10T06:42:04;-3.80;76.50
68235;DHT22;55052;52.056;5.296;2024-01-10T06:44:32;-3.80;76.60
68235;DHT22;55052;52.056;5.296;2024-01-10T06:47:00;-3.90;76.50
68235;DHT22;55052;52.056;5.296;2024-01-10T06:49:27;-3.90;76.40
68235;DHT22;55052;52.056;5.296;2024-01-10T06:51:54;-3.90;76.40
68235;DHT22;55052;52.056;5.296;2024-01-10T06:54:21;-4.00;77.20
68235;DHT22;55052;52.056;5.296;2024-01-10T06:56:48;-4.00;76.50
68235;DHT22;55052;52.056;5.296;2024-01-10T06:59:14;-4.00;76.70
68235;DHT22;55052;52.056;5.296;2024-01-10T07:01:41;-4.00;76.80
68235;DHT22;55052;52.056;5.296;2024-01-10T07:04:08;-4.00;76.90
68235;DHT22;55052;52.056;5.296;2024-01-10T07:06:35;-4.00;77.00
68235;DHT22;55052;52.056;5.296;2024-01-10T07:09:02;-4.00;77.00
68235;DHT22;55052;52.056;5.296;2024-01-10T07:11:29;-4.10;77.00
68235;DHT22;55052;52.056;5.296;2024-01-10T07:13:56;-4.00;77.10
68235;DHT22;55052;52.056;5.296;2024-01-10T07:16:23;-4.10;77.10
68235;DHT22;55052;52.056;5.296;2024-01-10T07:18:52;-4.10;78.00
68235;DHT22;55052;52.056;5.296;2024-01-10T07:21:19;-4.10;77.20
68235;DHT22;55052;52.056;5.296;2024-01-10T07:23:46;-4.10;77.30
68235;DHT22;55052;52.056;5.296;2024-01-10T07:26:13;-4.10;77.30
68235;DHT22;55052;52.056;5.296;2024-01-10T07:28:43;-4.20;77.30
68235;DHT22;55052;52.056;5.296;2024-01-10T07:31:11;-4.20;78.20
68235;DHT22;55052;52.056;5.296;2024-01-10T07:33:38;-4.20;77.40
68235;DHT22;55052;52.056;5.296;2024-01-10T07:36:05;-4.20;77.40
68235;DHT22;55052;52.056;5.296;2024-01-10T07:38:32;-4.20;77.50
68235;DHT22;55052;52.056;5.296;2024-01-10T07:41:00;-4.20;77.50
68235;DHT22;55052;52.056;5.296;2024-01-10T07:43:27;-4.20;77.50
68235;DHT22;55052;52.056;5.296;2024-01-10T07:45:53;-4.20;77.60
68235;DHT22;55052;52.056;5.296;2024-01-10T07:48:20;-4.20;77.70
68235;DHT22;55052;52.056;5.296;2024-01-10T07:50:47;-4.10;77.70
68235;DHT22;55052;52.056;5.296;2024-01-10T07:53:14;-4.10;77.70
68235;DHT22;55052;52.056;5.296;2024-01-10T07:55:41;-4.10;77.80
68235;DHT22;55052;52.056;5.296;2024-01-10T07:58:08;-4.10;77.80
68235;DHT22;55052;52.056;5.296;2024-01-10T08:00:35;-4.10;77.70
68235;DHT22;55052;52.056;5.296;2024-01-10T08:03:02;-4.10;77.70
68235;DHT22;55052;52.056;5.296;2024-01-10T08:05:29;-4.10;77.70
68235;DHT22;55052;52.056;5.296;2024-01-10T08:07:56;-4.00;77.70
68235;DHT22;55052;52.056;5.296;2024-01-10T08:10:24;-4.00;77.70
68235;DHT22;55052;52.056;5.296;2024-01-10T08:12:53;-4.00;77.60
68235;DHT22;55052;52.056;5.296;2024-01-10T08:15:20;-4.00;77.60
68235;DHT22;55052;52.056;5.296;2024-01-10T08:17:47;-3.90;77.60
68235;DHT22;55052;52.056;5.296;2024-01-10T08:20:14;-3.90;77.60
68235;DHT22;55052;52.056;5.296;2024-01-10T08:22:46;-3.90;77.60
68235;DHT22;55052;52.056;5.296;2024-01-10T08:25:13;-3.80;77.50
68235;DHT22;55052;52.056;5.296;2024-01-10T08:27:42;-3.80;77.50
68235;DHT22;55052;52.056;5.296;2024-01-10T08:30:11;-3.80;77.40
68235;DHT22;55052;52.056;5.296;2024-01-10T08:32:38;-3.80;77.30
68235;DHT22;55052;52.056;5.296;2024-01-10T08:35:06;-3.80;77.20
68235;DHT22;55052;52.056;5.296;2024-01-10T08:37:35;-3.70;77.30
68235;DHT22;55052;52.056;5.296;2024-01-10T08:40:02;-3.70;78.00
68235;DHT22;55052;52.056;5.296;2024-01-10T08:42:34;-3.60;77.10
68235;DHT22;55052;52.056;5.296;2024-01-10T08:45:01;-3.60;77.10
68235;DHT22;55052;52.056;5.296;2024-01-10T08:47:28;-3.60;77.00
68235;DHT22;55052;52.056;5.296;2024-01-10T08:49:58;-3.50;76.90
68235;DHT22;55052;52.056;5.296;2024-01-10T08:52:25;-3.50;76.80
68235;DHT22;55052;52.056;5.296;2024-01-10T08:54:52;-3.40;76.80
68235;DHT22;55052;52.056;5.296;2024-01-10T08:57:19;-3.40;76.70
68235;DHT22;55052;52.056;5.296;2024-01-10T08:59:46;-3.30;76.70
68235;DHT22;55052;52.056;5.296;2024-01-10T09:02:13;-3.30;76.50
68235;DHT22;55052;52.056;5.296;2024-01-10T09:04:40;-3.20;77.10
68235;DHT22;55052;52.056;5.296;2024-01-10T09:07:07;-3.20;76.00
68235;DHT22;55052;52.056;5.296;2024-01-10T09:09:36;-3.10;76.30
68235;DHT22;55052;52.056;5.296;2024-01-10T09:12:03;-3.10;76.10
68235;DHT22;55052;52.056;5.296;2024-01-10T09:14:29;-3.00;75.60
68235;DHT22;55052;52.056;5.296;2024-01-10T09:16:56;-3.00;75.50
68235;DHT22;55052;52.056;5.296;2024-01-10T09:19:25;-2.90;75.50
68235;DHT22;55052;52.056;5.296;2024-01-10T09:21:52;-2.90;75.20
68235;DHT22;55052;52.056;5.296;2024-01-10T09:24:19;-2.90;75.90
68235;DHT22;55052;52.056;5.296;2024-01-10T09:26:55;-2.80;74.80
68235;DHT22;55052;52.056;5.296;2024-01-10T09:29:23;-2.80;74.70
68235;DHT22;55052;52.056;5.296;2024-01-10T09:31:52;-2.70;74.70
68235;DHT22;55052;52.056;5.296;2024-01-10T09:34:19;-2.70;74.60
68235;DHT22;55052;52.056;5.296;2024-01-10T09:36:47;-2.70;74.50
68235;DHT22;55052;52.056;5.296;2024-01-10T09:39:13;-2.60;74.40
68235;DHT22;55052;52.056;5.296;2024-01-10T09:41:46;-2.60;74.30
68235;DHT22;55052;52.056;5.296;2024-01-10T09:44:15;-2.50;74.30
68235;DHT22;55052;52.056;5.296;2024-01-10T09:46:48;-2.50;73.90
68235;DHT22;55052;52.056;5.296;2024-01-10T09:49:16;-2.50;73.60
68235;DHT22;55052;52.056;5.296;2024-01-10T09:51:44;-2.40;73.40
68235;DHT22;55052;52.056;5.296;2024-01-10T09:54:13;-2.40;73.20
68235;DHT22;55052;52.056;5.296;2024-01-10T09:56:42;-2.30;72.60
68235;DHT22;55052;52.056;5.296;2024-01-10T09:59:10;-2.30;72.80
68235;DHT22;55052;52.056;5.296;2024-01-10T10:01:38;-2.20;72.80
68235;DHT22;55052;52.056;5.296;2024-01-10T10:04:07;-2.20;72.60
68235;DHT22;55052;52.056;5.296;2024-01-10T10:06:36;-2.10;72.50
68235;DHT22;55052;52.056;5.296;2024-01-10T10:09:03;-2.10;72.30
68235;DHT22;55052;52.056;5.296;2024-01-10T10:11:30;-2.10;71.90
68235;DHT22;55052;52.056;5.296;2024-01-10T10:14:13;-2.00;71.70
68235;DHT22;55052;52.056;5.296;2024-01-10T10:16:41;-1.90;71.70
68235;DHT22;55052;52.056;5.296;2024-01-10T10:19:08;-1.90;71.60
68235;DHT22;55052;52.056;5.296;2024-01-10T10:21:36;-1.80;71.60
68235;DHT22;55052;52.056;5.296;2024-01-10T10:24:03;-1.80;71.40
68235;DHT22;55052;52.056;5.296;2024-01-10T10:26:32;-1.70;71.20
68235;DHT22;55052;52.056;5.296;2024-01-10T10:28:59;-1.70;71.00
68235;DHT22;55052;52.056;5.296;2024-01-10T10:31:27;-1.60;70.90
68235;DHT22;55052;52.056;5.296;2024-01-10T10:33:54;-1.60;70.60
68235;DHT22;55052;52.056;5.296;2024-01-10T10:36:22;-1.50;70.00
68235;DHT22;55052;52.056;5.296;2024-01-10T10:38:49;-1.40;69.70
68235;DHT22;55052;52.056;5.296;2024-01-10T10:41:16;-1.40;69.70
68235;DHT22;55052;52.056;5.296;2024-01-10T10:43:43;-1.30;69.80
68235;DHT22;55052;52.056;5.296;2024-01-10T10:46:11;-1.30;69.60
68235;DHT22;55052;52.056;5.296;2024-01-10T10:48:42;-1.20;70.20
68235;DHT22;55052;52.056;5.296;2024-01-10T10:51:10;-1.20;68.80
68235;DHT22;55052;52.056;5.296;2024-01-10T10:53:38;-1.10;68.80
68235;DHT22;55052;52.056;5.296;2024-01-10T10:56:07;-1.00;68.90
68235;DHT22;55052;52.056;5.296;2024-01-10T10:58:39;-1.00;68.70
68235;DHT22;55052;52.056;5.296;2024-01-10T11:01:08;-0.90;68.80
68235;DHT22;55052;52.056;5.296;2024-01-10T11:03:37;-0.90;68.30
68235;DHT22;55052;52.056;5.296;2024-01-10T11:06:05;-0.80;68.10
68235;DHT22;55052;52.056;5.296;2024-01-10T11:08:38;-0.80;67.80
68235;DHT22;55052;52.056;5.296;2024-01-10T11:11:22;-0.80;67.90
68235;DHT22;55052;52.056;5.296;2024-01-10T11:16:58;-0.60;67.80
68235;DHT22;55052;52.056;5.296;2024-01-10T11:25:21;-0.50;67.20
68235;DHT22;55052;52.056;5.296;2024-01-10T11:27:54;-0.50;67.20
68235;DHT22;55052;52.056;5.296;2024-01-10T11:33:19;-0.30;67.00
68235;DHT22;55052;52.056;5.296;2024-01-10T11:36:19;-0.30;66.40
68235;DHT22;55052;52.056;5.296;2024-01-10T11:39:03;-0.20;66.40
68235;DHT22;55052;52.056;5.296;2024-01-10T11:41:38;-0.20;66.40
68235;DHT22;55052;52.056;5.296;2024-01-10T11:46:46;-0.10;66.20
68235;DHT22;55052;52.056;5.296;2024-01-10T11:49:17;0.00;66.40
68235;DHT22;55052;52.056;5.296;2024-01-10T11:51:46;0.00;66.30
68235;DHT22;55052;52.056;5.296;2024-01-10T11:54:52;0.00;65.90
68235;DHT22;55052;52.056;5.296;2024-01-10T11:57:20;0.10;66.10
68235;DHT22;55052;52.056;5.296;2024-01-10T11:59:55;0.20;66.20
68235;DHT22;55052;52.056;5.296;2024-01-10T12:02:23;0.20;66.60
68235;DHT22;55052;52.056;5.296;2024-01-10T12:04:54;0.30;65.40
68235;DHT22;55052;52.056;5.296;2024-01-10T12:07:21;0.30;64.90
68235;DHT22;55052;52.056;5.296;2024-01-10T12:09:48;0.30;64.00
68235;DHT22;55052;52.056;5.296;2024-01-10T12:12:15;0.40;64.00
68235;DHT22;55052;52.056;5.296;2024-01-10T12:14:42;0.50;63.90
68235;DHT22;55052;52.056;5.296;2024-01-10T12:17:15;0.50;64.10
68235;DHT22;55052;52.056;5.296;2024-01-10T12:19:43;0.60;63.80
68235;DHT22;55052;52.056;5.296;2024-01-10T12:22:13;0.60;63.40
68235;DHT22;55052;52.056;5.296;2024-01-10T12:24:44;0.60;62.80
68235;DHT22;55052;52.056;5.296;2024-01-10T12:27:18;0.70;63.10
68235;DHT22;55052;52.056;5.296;2024-01-10T12:29:53;0.70;63.50
68235;DHT22;55052;52.056;5.296;2024-01-10T12:32:21;0.80;62.80
68235;DHT22;55052;52.056;5.296;2024-01-10T12:35:00;0.80;62.70
68235;DHT22;55052;52.056;5.296;2024-01-10T12:37:27;0.80;62.60
68235;DHT22;55052;52.056;5.296;2024-01-10T12:39:54;0.90;62.80
68235;DHT22;55052;52.056;5.296;2024-01-10T12:42:21;0.90;62.70
68235;DHT22;55052;52.056;5.296;2024-01-10T12:44:48;1.00;61.90
68235;DHT22;55052;52.056;5.296;2024-01-10T12:47:22;1.00;61.60
68235;DHT22;55052;52.056;5.296;2024-01-10T12:49:50;1.00;61.30
68235;DHT22;55052;52.056;5.296;2024-01-10T12:52:17;1.00;61.70
68235;DHT22;55052;52.056;5.296;2024-01-10T12:54:48;1.10;61.70
68235;DHT22;55052;52.056;5.296;2024-01-10T12:57:15;1.10;60.50
68235;DHT22;55052;52.056;5.296;2024-01-10T12:59:42;1.20;60.90
68235;DHT22;55052;52.056;5.296;2024-01-10T13:02:08;1.20;60.80
68235;DHT22;55052;52.056;5.296;2024-01-10T13:04:35;1.20;60.90
68235;DHT22;55052;52.056;5.296;2024-01-10T13:07:03;1.20;60.50
68235;DHT22;55052;52.056;5.296;2024-01-10T13:09:29;1.30;60.40
68235;DHT22;55052;52.056;5.296;2024-01-10T13:11:56;1.30;61.40
68235;DHT22;55052;52.056;5.296;2024-01-10T13:14:23;1.30;60.60
68235;DHT22;55052;52.056;5.296;2024-01-10T13:16:50;1.40;60.60
68235;DHT22;55052;52.056;5.296;2024-01-10T13:19:25;1.40;60.40
68235;DHT22;55052;52.056;5.296;2024-01-10T13:21:53;1.40;60.00
68235;DHT22;55052;52.056;5.296;2024-01-10T13:24:20;1.40;60.30
68235;DHT22;55052;52.056;5.296;2024-01-10T13:26:46;1.50;60.40
68235;DHT22;55052;52.056;5.296;2024-01-10T13:29:15;1.50;60.80
68235;DHT22;55052;52.056;5.296;2024-01-10T13:31:43;1.50;60.50
68235;DHT22;55052;52.056;5.296;2024-01-10T13:34:10;1.50;60.30
68235;DHT22;55052;52.056;5.296;2024-01-10T13:36:38;1.60;60.30
68235;DHT22;55052;52.056;5.296;2024-01-10T13:39:05;1.60;59.90
68235;DHT22;55052;52.056;5.296;2024-01-10T13:41:32;1.60;60.00
68235;DHT22;55052;52.056;5.296;2024-01-10T13:43:59;1.60;60.00
68235;DHT22;55052;52.056;5.296;2024-01-10T13:46:26;1.60;60.70
68235;DHT22;55052;52.056;5.296;2024-01-10T13:48:52;1.70;61.20
68235;DHT22;55052;52.056;5.296;2024-01-10T13:51:19;1.70;60.60
68235;DHT22;55052;52.056;5.296;2024-01-10T13:53:46;1.70;60.40
68235;DHT22;55052;52.056;5.296;2024-01-10T13:56:13;1.70;60.50
68235;DHT22;55052;52.056;5.296;2024-01-10T13:58:39;1.80;60.40
68235;DHT22;55052;52.056;5.296;2024-01-10T14:01:06;1.80;60.60
68235;DHT22;55052;52.056;5.296;2024-01-10T14:03:33;1.80;59.60
68235;DHT22;55052;52.056;5.296;2024-01-10T14:06:00;1.80;59.50
68235;DHT22;55052;52.056;5.296;2024-01-10T14:08:27;1.80;59.60
68235;DHT22;55052;52.056;5.296;2024-01-10T14:10:54;1.80;59.10
68235;DHT22;55052;52.056;5.296;2024-01-10T14:13:21;1.80;58.70
68235;DHT22;55052;52.056;5.296;2024-01-10T14:15:49;1.80;59.30
68235;DHT22;55052;52.056;5.296;2024-01-10T14:18:16;1.80;59.00
68235;DHT22;55052;52.056;5.296;2024-01-10T14:20:43;1.80;59.30
68235;DHT22;55052;52.056;5.296;2024-01-10T14:23:11;1.80;59.30
68235;DHT22;55052;52.056;5.296;2024-01-10T14:25:38;1.80;59.00
68235;DHT22;55052;52.056;5.296;2024-01-10T14:28:05;1.80;59.00
68235;DHT22;55052;52.056;5.296;2024-01-10T14:30:31;1.80;58.80
68235;DHT22;55052;52.056;5.296;2024-01-10T14:32:59;1.80;58.90
68235;DHT22;55052;52.056;5.296;2024-01-10T14:35:26;1.80;59.40
68235;DHT22;55052;52.056;5.296;2024-01-10T14:37:53;1.80;59.40
68235;DHT22;55052;52.056;5.296;2024-01-10T14:40:20;1.80;59.30
68235;DHT22;55052;52.056;5.296;2024-01-10T14:42:50;1.80;58.60
68235;DHT22;55052;52.056;5.296;2024-01-10T14:45:17;1.80;58.20
68235;DHT22;55052;52.056;5.296;2024-01-10T14:47:44;1.80;58.00
68235;DHT22;55052;52.056;5.296;2024-01-10T14:50:11;1.80;57.90
68235;DHT22;55052;52.056;5.296;2024-01-10T14:52:38;1.80;58.40
68235;DHT22;55052;52.056;5.296;2024-01-10T14:55:05;1.80;58.80
68235;DHT22;55052;52.056;5.296;2024-01-10T14:57:32;1.80;59.20
68235;DHT22;55052;52.056;5.296;2024-01-10T14:59:59;1.80;59.40
68235;DHT22;55052;52.056;5.296;2024-01-10T15:02:26;1.80;59.40
68235;DHT22;55052;52.056;5.296;2024-01-10T15:04:53;1.70;59.50
68235;DHT22;55052;52.056;5.296;2024-01-10T15:07:20;1.70;60.00
68235;DHT22;55052;52.056;5.296;2024-01-10T15:09:47;1.70;59.70
68235;DHT22;55052;52.056;5.296;2024-01-10T15:12:14;1.70;59.90
68235;DHT22;55052;52.056;5.296;2024-01-10T15:14:41;1.70;59.90
68235;DHT22;55052;52.056;5.296;2024-01-10T15:17:09;1.70;59.80
68235;DHT22;55052;52.056;5.296;2024-01-10T15:19:38;1.70;60.10
68235;DHT22;55052;52.056;5.296;2024-01-10T15:22:05;1.60;59.80
68235;DHT22;55052;52.056;5.296;2024-01-10T15:24:33;1.60;59.50
68235;DHT22;55052;52.056;5.296;2024-01-10T15:27:00;1.60;59.60
68235;DHT22;55052;52.056;5.296;2024-01-10T15:29:29;1.50;59.60
68235;DHT22;55052;52.056;5.296;2024-01-10T15:31:57;1.50;59.90
68235;DHT22;55052;52.056;5.296;2024-01-10T15:34:24;1.50;59.90
68235;DHT22;55052;52.056;5.296;2024-01-10T15:36:52;1.50;60.00
68235;DHT22;55052;52.056;5.296;2024-01-10T15:39:19;1.40;60.00
68235;DHT22;55052;52.056;5.296;2024-01-10T15:41:51;1.40;60.20
68235;DHT22;55052;52.056;5.296;2024-01-10T15:44:18;1.40;60.20
68235;DHT22;55052;52.056;5.296;2024-01-10T15:46:47;1.30;60.30
68235;DHT22;55052;52.056;5.296;2024-01-10T15:49:14;1.30;60.30
68235;DHT22;55052;52.056;5.296;2024-01-10T15:51:42;1.30;60.60
68235;DHT22;55052;52.056;5.296;2024-01-10T15:54:09;1.30;60.80